createdAt,value
2019-02-12T00:02:18.017Z,19.20
2019-02-12T00:04:57.308Z,22.60
2019-02-12T00:07:37.434Z,15.93
2019-02-12T00:10:16.795Z,25.30
2019-02-12T00:12:56.279Z,19.35
2019-02-12T00:15:36.581Z,19.15
2019-02-12T00:18:16.803Z,17.57
2019-02-12T00:20:55.937Z,22.67
2019-02-12T00:23:35.223Z,21.77
2019-02-12T00:26:14.361Z,23.90
2019-02-12T00:28:53.461Z,21.17
2019-02-12T00:31:32.588Z,21.15
2019-02-12T00:34:16.054Z,20.25
2019-02-12T00:36:55.044Z,15.45
2019-02-12T00:39:34.486Z,19.10
2019-02-12T00:42:13.536Z,14.05
2019-02-12T00:44:52.675Z,15.23
2019-02-12T00:47:31.687Z,13.03
2019-02-12T00:50:11.699Z,16.48
2019-02-12T00:52:51.812Z,14.83
2019-02-12T00:55:36.133Z,18.30
2019-02-12T00:58:14.954Z,11.43
2019-02-12T01:00:54.229Z,17.75
2019-02-12T01:03:34.357Z,17.25
2019-02-12T01:06:13.620Z,14.53
2019-02-12T01:08:52.719Z,13.28
2019-02-12T01:11:32.020Z,14.38
2019-02-12T01:14:11.612Z,17.85
2019-02-12T01:16:50.913Z,15.80
2019-02-12T01:19:29.993Z,19.32
2019-02-12T01:22:12.105Z,14.70
2019-02-12T01:24:51.436Z,12.05
2019-02-12T01:27:30.724Z,12.75
2019-02-12T01:30:11.921Z,12.20
2019-02-12T01:32:53.745Z,8.90
2019-02-12T01:35:32.992Z,17.07
2019-02-12T01:38:12.264Z,17.20
2019-02-12T01:40:51.592Z,10.85
2019-02-12T01:43:30.700Z,15.45
2019-02-12T01:46:16.521Z,14.15
2019-02-12T01:48:58.787Z,14.90
2019-02-12T01:51:37.971Z,13.13
2019-02-12T01:54:18.910Z,15.80
2019-02-12T01:56:58.269Z,20.88
2019-02-12T01:59:37.874Z,16.32
2019-02-12T02:02:17.169Z,49.03
2019-02-12T02:04:56.551Z,32.50
2019-02-12T02:07:35.978Z,34.55
2019-02-12T02:10:17.016Z,44.88
2019-02-12T02:12:56.172Z,25.12
2019-02-12T02:15:35.294Z,22.67
2019-02-12T02:18:14.462Z,25.30
2019-02-12T02:20:55.189Z,17.50
2019-02-12T02:23:34.315Z,17.35
2019-02-12T02:26:13.588Z,13.85
2019-02-12T02:28:52.715Z,14.43
2019-02-12T02:31:31.884Z,13.72
2019-02-12T02:34:11.113Z,15.13
2019-02-12T02:36:51.081Z,15.35
2019-02-12T02:39:29.684Z,15.32
2019-02-12T02:42:11.281Z,15.30
2019-02-12T02:44:50.204Z,18.70
2019-02-12T02:47:29.624Z,19.23
2019-02-12T02:50:08.975Z,17.20
2019-02-12T02:52:49.149Z,17.80
2019-02-12T02:55:28.484Z,18.87
2019-02-12T02:58:09.309Z,16.30
2019-02-12T03:00:48.763Z,16.73
2019-02-12T03:03:28.761Z,18.30
2019-02-12T03:06:08.550Z,15.98
2019-02-12T03:08:49.054Z,19.85
2019-02-12T03:11:28.411Z,17.35
2019-02-12T03:14:08.340Z,21.73
2019-02-12T03:16:48.469Z,25.12
2019-02-12T03:19:27.640Z,19.10
2019-02-12T03:22:06.825Z,25.08
2019-02-12T03:24:45.975Z,23.25
2019-02-12T03:27:25.269Z,28.87
2019-02-12T03:30:05.670Z,24.37
2019-02-12T03:32:45.126Z,26.70
2019-02-12T03:35:24.246Z,28.35
2019-02-12T03:38:03.801Z,26.23
2019-02-12T03:40:42.965Z,22.95
2019-02-12T03:43:21.947Z,26.25
2019-02-12T03:46:01.503Z,23.57
2019-02-12T03:48:40.873Z,25.27
2019-02-12T03:51:20.012Z,27.17
2019-02-12T03:53:59.113Z,25.55
2019-02-12T03:56:39.621Z,22.65
2019-02-12T03:59:22.674Z,24.60
2019-02-12T04:02:02.088Z,24.32
2019-02-12T04:04:44.120Z,30.10
2019-02-12T04:09:59.236Z,28.40
2019-02-12T04:12:39.197Z,31.33
2019-02-12T04:15:18.474Z,25.62
2019-02-12T04:17:58.241Z,30.82
2019-02-12T04:20:37.652Z,26.75
2019-02-12T04:23:16.610Z,27.95
2019-02-12T04:25:55.552Z,26.35
2019-02-12T04:28:38.626Z,30.48
2019-02-12T04:31:17.906Z,28.27
2019-02-12T04:33:56.899Z,28.27
2019-02-12T04:36:36.090Z,30.60
2019-02-12T04:39:15.459Z,25.97
2019-02-12T04:41:54.415Z,27.52
2019-02-12T04:44:33.528Z,32.78
2019-02-12T04:47:12.488Z,33.78
2019-02-12T04:49:51.530Z,29.05
2019-02-12T04:52:32.019Z,29.50
2019-02-12T04:55:12.029Z,37.25
2019-02-12T04:57:54.014Z,30.75
2019-02-12T05:00:34.557Z,32.60
2019-02-12T05:03:13.540Z,31.68
2019-02-12T05:05:52.678Z,32.13
2019-02-12T05:08:31.656Z,34.30
2019-02-12T05:11:10.862Z,31.42
2019-02-12T05:13:50.151Z,35.70
2019-02-12T05:16:30.661Z,31.12
2019-02-12T05:21:51.654Z,44.42
2019-02-12T05:24:30.773Z,36.17
2019-02-12T05:27:10.129Z,33.10
2019-02-12T05:29:52.251Z,31.90
2019-02-12T05:32:35.478Z,32.98
2019-02-12T05:35:12.665Z,34.78
2019-02-12T05:37:52.920Z,31.25
2019-02-12T05:40:31.804Z,31.55
2019-02-12T05:43:12.159Z,33.18
2019-02-12T05:45:51.159Z,32.33
2019-02-12T05:48:30.457Z,34.33
2019-02-12T05:51:10.261Z,34.83
2019-02-12T05:53:49.326Z,33.25
2019-02-12T05:56:29.930Z,36.60
2019-02-12T05:59:09.009Z,32.75
2019-02-12T06:01:49.374Z,34.43
2019-02-12T06:04:28.803Z,31.95
2019-02-12T06:07:08.889Z,32.95
2019-02-12T06:09:48.204Z,32.50
2019-02-12T06:12:38.214Z,32.25
2019-02-12T06:15:17.456Z,31.35
2019-02-12T06:17:56.980Z,32.85
2019-02-12T06:20:37.270Z,37.58
2019-02-12T06:23:17.453Z,32.20
2019-02-12T06:25:58.852Z,38.07
2019-02-12T06:28:39.114Z,33.78
2019-02-12T06:31:18.286Z,36.55
2019-02-12T06:33:57.403Z,37.58
2019-02-12T06:36:37.277Z,33.65
2019-02-12T06:39:16.227Z,33.63
2019-02-12T06:41:57.360Z,36.68
2019-02-12T06:44:36.843Z,31.70
2019-02-12T06:47:16.402Z,31.45
2019-02-12T06:49:57.425Z,34.83
2019-02-12T06:52:36.740Z,33.90
2019-02-12T06:55:16.009Z,32.85
2019-02-12T06:57:54.863Z,32.05
2019-02-12T07:00:34.005Z,32.20
2019-02-12T07:03:20.150Z,33.70
2019-02-12T07:06:09.539Z,34.03
2019-02-12T07:08:59.160Z,32.03
2019-02-12T07:12:12.586Z,30.68
2019-02-12T07:15:19.089Z,31.50
2019-02-12T07:18:17.829Z,33.85
2019-02-12T07:21:37.852Z,33.55
2019-02-12T07:24:45.012Z,31.75
2019-02-12T07:28:03.492Z,33.33
2019-02-12T07:31:22.123Z,31.07
2019-02-12T07:34:34.954Z,29.95
2019-02-12T07:37:39.315Z,32.48
2019-02-12T07:40:52.608Z,30.50
2019-02-12T07:44:10.176Z,32.08
2019-02-12T07:47:10.318Z,30.85
2019-02-12T07:50:41.623Z,30.40
2019-02-12T07:53:31.488Z,33.60
2019-02-12T07:57:00.205Z,31.27
2019-02-12T08:00:07.232Z,33.42
2019-02-12T08:03:15.573Z,29.98
2019-02-12T08:06:21.862Z,31.90
2019-02-12T08:09:44.803Z,34.73
2019-02-12T08:12:39.930Z,31.57
2019-02-12T08:15:39.256Z,32.88
2019-02-12T08:18:37.919Z,30.88
2019-02-12T08:21:38.880Z,32.50
2019-02-12T08:24:59.908Z,29.02
2019-02-12T08:28:31.674Z,32.88
2019-02-12T08:31:25.115Z,35.83
2019-02-12T08:34:36.285Z,36.75
2019-02-12T08:37:44.131Z,34.13
2019-02-12T08:40:57.832Z,36.48
2019-02-12T08:44:08.746Z,38.75
2019-02-12T08:47:30.358Z,33.35
2019-02-12T08:50:36.227Z,35.70
2019-02-12T08:53:57.223Z,32.00
2019-02-12T08:57:11.266Z,36.75
2019-02-12T09:00:14.113Z,36.65
2019-02-12T09:03:38.515Z,35.10
2019-02-12T09:06:47.514Z,34.10
2019-02-12T09:10:27.742Z,34.55
2019-02-12T09:13:37.804Z,38.50
2019-02-12T09:16:59.164Z,37.83
2019-02-12T09:20:06.629Z,35.20
2019-02-12T09:23:40.380Z,29.32
2019-02-12T09:26:33.272Z,34.45
2019-02-12T09:29:33.363Z,40.00
2019-02-12T09:32:46.426Z,33.25
2019-02-12T09:36:00.291Z,33.38
2019-02-12T09:39:15.494Z,31.42
2019-02-12T09:42:37.993Z,34.45
2019-02-12T09:48:33.070Z,34.88
2019-02-12T09:51:49.345Z,34.20
2019-02-12T09:55:02.821Z,32.50
2019-02-12T09:58:12.340Z,30.68
2019-02-12T10:01:39.618Z,29.52
2019-02-12T10:04:39.554Z,29.37
2019-02-12T10:07:42.360Z,34.15
2019-02-12T10:11:01.108Z,35.35
2019-02-12T10:13:51.404Z,29.60
2019-02-12T10:17:14.882Z,35.10
2019-02-12T10:20:06.512Z,29.90
2019-02-12T10:23:14.132Z,33.00
2019-02-12T10:26:03.495Z,31.23
2019-02-12T10:29:06.204Z,31.42
2019-02-12T10:31:48.930Z,29.75
2019-02-12T10:37:06.383Z,31.77
2019-02-12T10:39:47.779Z,35.48
2019-02-12T10:42:26.972Z,33.28
2019-02-12T10:45:08.541Z,31.80
2019-02-12T10:47:51.305Z,32.67
2019-02-12T10:53:08.967Z,40.98
2019-02-12T10:55:48.522Z,38.15
2019-02-12T10:58:27.807Z,32.17
2019-02-12T11:01:09.209Z,32.90
2019-02-12T11:03:48.807Z,36.08
2019-02-12T11:06:27.854Z,37.15
2019-02-12T11:09:08.409Z,32.08
2019-02-12T11:11:49.022Z,39.63
2019-02-12T11:14:28.855Z,40.20
2019-02-12T11:17:09.032Z,39.13
2019-02-12T11:19:49.347Z,37.98
2019-02-12T11:22:29.511Z,39.05
2019-02-12T11:25:10.426Z,39.42
2019-02-12T11:27:49.861Z,37.25
2019-02-12T11:30:30.049Z,36.75
2019-02-12T11:33:10.076Z,34.83
2019-02-12T11:35:50.246Z,34.10
2019-02-12T11:38:31.619Z,31.60
2019-02-12T11:41:11.894Z,37.15
2019-02-12T11:43:51.302Z,40.85
2019-02-12T11:46:33.040Z,33.25
2019-02-12T11:49:12.603Z,33.75
2019-02-12T11:51:52.732Z,38.28
2019-02-12T11:54:32.532Z,35.63
2019-02-12T11:57:12.491Z,37.53
2019-02-12T11:59:52.323Z,39.25
2019-02-12T12:02:41.792Z,34.63
2019-02-12T12:05:17.679Z,36.42
2019-02-12T12:07:58.505Z,33.78
2019-02-12T12:10:40.122Z,33.75
2019-02-12T12:13:20.523Z,40.23
2019-02-12T12:16:01.018Z,37.00
2019-02-12T12:18:41.043Z,36.20
2019-02-12T12:21:25.715Z,33.23
2019-02-12T12:24:05.422Z,38.40
2019-02-12T12:26:44.658Z,34.73
2019-02-12T12:29:24.126Z,37.42
2019-02-12T12:32:05.412Z,34.10
2019-02-12T12:34:47.663Z,44.50
2019-02-12T12:37:31.681Z,33.85
2019-02-12T12:40:11.095Z,38.80
2019-02-12T12:42:52.372Z,37.28
2019-02-12T12:45:31.735Z,37.75
2019-02-12T12:48:13.184Z,39.60
2019-02-12T12:50:52.400Z,41.75
2019-02-12T12:53:31.730Z,41.83
2019-02-12T12:56:13.137Z,39.38
2019-02-12T12:58:52.276Z,38.35
2019-02-12T13:01:32.548Z,34.80
2019-02-12T13:04:12.844Z,33.40
2019-02-12T13:06:53.131Z,34.83
2019-02-12T13:09:32.162Z,36.70
2019-02-12T13:12:11.571Z,41.28
2019-02-12T13:14:55.761Z,33.78
2019-02-12T13:17:40.003Z,41.08
2019-02-12T13:20:20.066Z,36.38
2019-02-12T13:23:33.938Z,40.83
2019-02-12T13:26:35.324Z,37.73
2019-02-12T13:30:04.519Z,36.08
2019-02-12T13:32:46.307Z,40.15
2019-02-12T13:35:26.511Z,51.10
2019-02-12T13:38:07.024Z,32.20
2019-02-12T13:40:50.008Z,38.05
2019-02-12T13:43:29.507Z,38.08
2019-02-12T13:46:09.292Z,39.42
2019-02-12T13:48:48.751Z,35.63
2019-02-12T13:51:32.313Z,47.85
2019-02-12T13:54:40.413Z,43.00
2019-02-12T13:57:42.154Z,42.55
2019-02-12T14:00:21.718Z,43.45
2019-02-12T14:03:00.986Z,47.48
2019-02-12T14:05:42.910Z,49.73
2019-02-12T14:08:40.199Z,38.58
2019-02-12T14:11:52.794Z,42.05
2019-02-12T14:14:48.731Z,39.58
2019-02-12T14:17:28.471Z,38.85
2019-02-12T14:20:29.763Z,35.30
2019-02-12T14:23:09.811Z,31.90
2019-02-12T14:25:50.522Z,30.12
2019-02-12T14:28:34.947Z,36.08
2019-02-12T14:31:16.406Z,29.40
2019-02-12T14:33:59.088Z,33.55
2019-02-12T14:36:41.972Z,28.65
2019-02-12T14:39:21.172Z,35.68
2019-02-12T14:42:00.670Z,32.10
2019-02-12T14:44:41.763Z,31.75
2019-02-12T14:47:32.026Z,33.98
2019-02-12T14:50:27.506Z,31.73
2019-02-12T14:53:07.658Z,28.32
2019-02-12T14:55:49.937Z,30.57
2019-02-12T14:58:32.569Z,25.02
2019-02-12T15:01:50.621Z,25.20
2019-02-12T15:05:00.541Z,27.87
2019-02-12T15:07:39.804Z,25.82
2019-02-12T15:10:19.875Z,33.13
2019-02-12T15:13:04.492Z,24.85
2019-02-12T15:15:55.008Z,23.85
2019-02-12T15:18:34.658Z,30.25
2019-02-12T15:21:21.350Z,28.98
2019-02-12T15:24:02.676Z,23.25
2019-02-12T15:26:43.790Z,20.88
2019-02-12T15:29:26.334Z,24.15
2019-02-12T15:32:06.660Z,22.55
2019-02-12T15:34:47.124Z,23.57
2019-02-12T15:37:26.921Z,24.05
2019-02-12T15:40:06.357Z,19.82
2019-02-12T15:42:46.845Z,22.58
2019-02-12T15:45:45.527Z,17.87
2019-02-12T15:48:25.109Z,18.98
2019-02-12T15:51:15.412Z,20.12
2019-02-12T15:53:54.809Z,21.15
2019-02-12T15:56:33.958Z,20.00
2019-02-12T15:59:14.416Z,15.72
2019-02-12T16:01:54.906Z,20.50
2019-02-12T16:04:34.061Z,24.27
2019-02-12T16:07:15.664Z,16.75
2019-02-12T16:09:55.355Z,20.25
2019-02-12T16:12:35.280Z,18.73
2019-02-12T16:15:19.893Z,21.27
2019-02-12T16:18:00.299Z,17.62
2019-02-12T16:20:39.948Z,22.73
2019-02-12T16:23:21.796Z,19.77
2019-02-12T16:26:01.540Z,19.75
2019-02-12T16:28:42.042Z,19.67
2019-02-12T16:31:21.479Z,25.15
2019-02-12T16:34:00.786Z,19.37
2019-02-12T16:36:41.072Z,18.90
2019-02-12T16:39:20.517Z,20.00
2019-02-12T16:41:59.732Z,18.77
2019-02-12T16:44:40.146Z,17.32
2019-02-12T16:47:19.511Z,18.45
2019-02-12T16:49:59.663Z,18.87
2019-02-12T16:52:42.734Z,16.70
2019-02-12T16:55:22.836Z,24.37
2019-02-12T16:58:02.646Z,23.02
2019-02-12T17:00:44.071Z,26.00
2019-02-12T17:03:24.590Z,17.87
2019-02-12T17:06:05.175Z,19.27
2019-02-12T17:08:44.554Z,22.25
2019-02-12T17:11:26.792Z,19.32
2019-02-12T17:14:06.105Z,20.62
2019-02-12T17:16:45.666Z,17.50
2019-02-12T17:19:27.049Z,16.17
2019-02-12T17:22:06.390Z,16.00
2019-02-12T17:24:46.378Z,17.50
2019-02-12T17:27:26.058Z,15.85
2019-02-12T17:30:05.827Z,14.85
2019-02-12T17:32:48.657Z,16.17
2019-02-12T17:57:21.834Z,18.55
2019-02-12T18:00:01.101Z,17.48
2019-02-12T18:02:41.635Z,16.77
2019-02-12T18:05:20.977Z,19.90
2019-02-12T18:08:00.646Z,18.25
2019-02-12T18:10:40.306Z,21.73
2019-02-12T18:13:18.957Z,18.82
2019-02-12T18:15:58.983Z,18.73
2019-02-12T18:18:38.626Z,18.52
2019-02-12T18:21:18.265Z,16.85
2019-02-12T18:23:57.519Z,15.60
2019-02-12T18:26:38.004Z,19.23
2019-02-12T18:29:17.268Z,18.73
2019-02-12T18:31:56.704Z,13.90
2019-02-12T18:34:36.303Z,19.45
2019-02-12T18:37:15.850Z,22.93
2019-02-12T18:39:56.400Z,25.48
2019-02-12T18:42:35.722Z,20.25
2019-02-12T18:45:16.411Z,17.00
2019-02-12T18:47:55.950Z,20.48
2019-02-12T18:50:35.412Z,17.02
2019-02-12T18:53:14.676Z,18.05
2019-02-12T18:55:54.116Z,20.37
2019-02-12T18:58:34.662Z,16.60
2019-02-12T19:01:14.861Z,18.62
2019-02-12T19:03:54.050Z,14.73
2019-02-12T19:06:33.409Z,18.57
2019-02-12T19:09:18.147Z,15.88
2019-02-12T19:11:57.819Z,13.90
2019-02-12T19:14:37.162Z,15.72
2019-02-12T19:17:16.462Z,15.50
2019-02-12T19:19:55.883Z,13.93
2019-02-12T19:22:35.144Z,18.20
2019-02-12T19:25:17.114Z,19.30
2019-02-12T19:27:56.362Z,17.32
2019-02-12T19:30:35.472Z,20.10
2019-02-12T19:33:15.714Z,19.07
2019-02-12T19:35:54.947Z,18.12
2019-02-12T19:38:34.806Z,15.85
2019-02-12T19:41:13.509Z,18.57
2019-02-12T19:43:52.932Z,22.13
2019-02-12T19:46:32.980Z,15.93
2019-02-12T19:49:12.139Z,15.93
2019-02-12T19:51:51.578Z,24.37
2019-02-12T19:54:30.845Z,17.25
2019-02-12T19:57:10.606Z,17.52
2019-02-12T19:59:51.874Z,22.20
2019-02-12T20:02:31.396Z,21.52
2019-02-12T20:05:14.354Z,24.30
2019-02-12T20:07:53.424Z,23.30
2019-02-12T20:10:34.671Z,26.42
2019-02-12T20:13:15.571Z,22.17
2019-02-12T20:15:54.937Z,22.55
2019-02-12T20:18:33.838Z,21.42
2019-02-12T20:21:17.344Z,23.98
2019-02-12T20:24:02.843Z,22.50
2019-02-12T20:26:44.034Z,18.73
2019-02-12T20:29:23.106Z,21.95
2019-02-12T20:32:02.528Z,29.65
2019-02-12T20:34:41.851Z,30.62
2019-02-12T20:37:22.000Z,29.90
2019-02-12T20:40:02.343Z,35.78
2019-02-12T20:42:42.467Z,39.23
2019-02-12T20:45:21.971Z,35.63
2019-02-12T20:48:01.089Z,35.98
2019-02-12T20:50:40.556Z,38.95
2019-02-12T20:53:20.686Z,40.38
2019-02-12T20:55:59.997Z,42.45
2019-02-12T20:58:39.558Z,41.65
2019-02-12T21:01:18.256Z,37.78
2019-02-12T21:03:57.896Z,36.03
2019-02-12T21:06:38.413Z,40.75
2019-02-12T21:09:17.989Z,38.08
2019-02-12T21:11:58.324Z,43.30
2019-02-12T21:14:38.763Z,38.45
2019-02-12T21:17:18.546Z,34.92
2019-02-12T21:19:57.886Z,30.82
2019-02-12T21:22:37.507Z,34.05
2019-02-12T21:25:16.471Z,37.42
2019-02-12T21:27:55.358Z,40.17
2019-02-12T21:30:34.472Z,41.30
2019-02-12T21:33:13.708Z,40.92
2019-02-12T21:35:52.935Z,44.03
2019-02-12T21:38:31.919Z,46.45
2019-02-12T21:41:11.489Z,41.68
2019-02-12T21:43:50.679Z,40.98
2019-02-12T21:46:29.990Z,43.23
2019-02-12T21:49:09.066Z,43.87
2019-02-12T21:51:48.662Z,45.70
2019-02-12T21:54:28.140Z,42.15
2019-02-12T21:57:07.428Z,45.58
2019-02-12T21:59:47.425Z,49.25
2019-02-12T22:02:26.626Z,51.28
2019-02-12T22:05:06.080Z,50.52
2019-02-12T22:07:46.765Z,49.42
2019-02-12T22:10:26.096Z,48.00
2019-02-12T22:13:08.440Z,43.68
2019-02-12T22:15:54.954Z,41.77
2019-02-12T22:18:34.302Z,44.45
2019-02-12T22:21:14.568Z,45.08
2019-02-12T22:23:55.971Z,45.63
2019-02-12T22:26:35.694Z,42.20
2019-02-12T22:29:16.091Z,49.90
2019-02-12T22:31:57.471Z,42.85
2019-02-12T22:34:36.951Z,46.30
2019-02-12T22:37:16.819Z,44.33
2019-02-12T22:39:57.498Z,42.35
2019-02-12T22:42:40.263Z,44.30
2019-02-12T22:45:21.461Z,48.80
2019-02-12T22:48:02.645Z,48.42
2019-02-12T22:50:43.354Z,49.42
2019-02-12T22:53:22.952Z,53.98
2019-02-12T22:56:02.944Z,54.18
2019-02-12T22:58:43.274Z,53.75
2019-02-12T23:01:34.810Z,44.75
2019-02-12T23:04:16.430Z,52.78
2019-02-12T23:06:55.982Z,56.77
2019-02-12T23:09:36.958Z,53.02
2019-02-12T23:12:33.091Z,51.80
2019-02-12T23:15:13.947Z,48.80
2019-02-12T23:17:54.434Z,56.37
2019-02-12T23:20:34.742Z,54.83
2019-02-12T23:23:14.550Z,49.05
2019-02-12T23:25:54.422Z,49.65
2019-02-12T23:28:34.430Z,39.98
2019-02-12T23:31:15.383Z,47.60
2019-02-12T23:33:55.202Z,48.40
2019-02-12T23:36:36.124Z,47.05
2019-02-12T23:39:16.520Z,45.98
2019-02-12T23:41:58.366Z,52.00
2019-02-12T23:44:39.063Z,43.28
2019-02-12T23:47:19.463Z,43.40
2019-02-12T23:50:00.667Z,47.90
2019-02-12T23:52:41.086Z,47.43
2019-02-12T23:55:20.689Z,55.20
2019-02-12T23:58:05.975Z,58.52
